sensor_id;sensor_type;location;lat;lon;timestamp;P1;durP1;ratioP1;P2;durP2;ratioP2
37527;SDS011;23372;52.050;4.810;2024-02-23T00:02:05;7.97;;;1.47;;
37527;SDS011;23372;52.050;4.810;2024-02-23T00:04:31;15.33;;;2.00;;
37527;SDS011;23372;52.050;4.810;2024-02-23T00:06:56;10.27;;;1.80;;
37527;SDS011;23372;52.050;4.810;2024-02-23T00:09:22;11.17;;;1.90;;
37527;SDS011;23372;52.050;4.810;2024-02-23T00:11:49;14.57;;;1.83;;
37527;SDS011;23372;52.050;4.810;2024-02-23T00:14:15;8.87;;;2.17;;
37527;SDS011;23372;52.050;4.810;2024-02-23T00:16:43;11.30;;;1.43;;
37527;SDS011;23372;52.050;4.810;2024-02-23T00:19:09;11.40;;;1.90;;
37527;SDS011;23372;52.050;4.810;2024-02-23T00:21:38;9.00;;;1.77;;
37527;SDS011;23372;52.050;4.810;2024-02-23T00:24:04;12.70;;;2.00;;
37527;SDS011;23372;52.050;4.810;2024-02-23T00:26:31;9.63;;;2.57;;
37527;SDS011;23372;52.050;4.810;2024-02-23T00:28:56;6.70;;;1.60;;
37527;SDS011;23372;52.050;4.810;2024-02-23T00:31:22;14.50;;;2.27;;
37527;SDS011;23372;52.050;4.810;2024-02-23T00:33:48;11.37;;;1.70;;
37527;SDS011;23372;52.050;4.810;2024-02-23T00:36:13;9.37;;;1.70;;
37527;SDS011;23372;52.050;4.810;2024-02-23T00:38:39;9.07;;;1.70;;
37527;SDS011;23372;52.050;4.810;2024-02-23T00:41:05;15.47;;;2.20;;
37527;SDS011;23372;52.050;4.810;2024-02-23T00:43:37;8.43;;;2.03;;
37527;SDS011;23372;52.050;4.810;2024-02-23T00:46:03;10.17;;;1.10;;
37527;SDS011;23372;52.050;4.810;2024-02-23T00:48:29;6.83;;;1.37;;
37527;SDS011;23372;52.050;4.810;2024-02-23T00:50:55;10.73;;;1.47;;
37527;SDS011;23372;52.050;4.810;2024-02-23T00:53:20;6.77;;;0.80;;
37527;SDS011;23372;52.050;4.810;2024-02-23T00:55:46;7.17;;;1.43;;
37527;SDS011;23372;52.050;4.810;2024-02-23T00:58:12;14.43;;;3.00;;
37527;SDS011;23372;52.050;4.810;2024-02-23T01:00:38;9.87;;;1.53;;
37527;SDS011;23372;52.050;4.810;2024-02-23T01:03:04;8.60;;;1.50;;
37527;SDS011;23372;52.050;4.810;2024-02-23T01:05:30;10.77;;;1.63;;
37527;SDS011;23372;52.050;4.810;2024-02-23T01:07:55;8.73;;;1.40;;
37527;SDS011;23372;52.050;4.810;2024-02-23T01:10:21;7.70;;;1.83;;
37527;SDS011;23372;52.050;4.810;2024-02-23T01:12:47;14.03;;;1.40;;
37527;SDS011;23372;52.050;4.810;2024-02-23T01:15:12;10.03;;;1.97;;
37527;SDS011;23372;52.050;4.810;2024-02-23T01:17:38;10.77;;;2.80;;
37527;SDS011;23372;52.050;4.810;2024-02-23T01:20:03;11.77;;;1.60;;
37527;SDS011;23372;52.050;4.810;2024-02-23T01:22:30;10.47;;;2.60;;
37527;SDS011;23372;52.050;4.810;2024-02-23T01:24:55;9.23;;;1.40;;
37527;SDS011;23372;52.050;4.810;2024-02-23T01:27:21;4.67;;;1.27;;
37527;SDS011;23372;52.050;4.810;2024-02-23T01:29:47;8.87;;;1.63;;
37527;SDS011;23372;52.050;4.810;2024-02-23T01:32:13;8.80;;;1.60;;
37527;SDS011;23372;52.050;4.810;2024-02-23T01:34:38;7.83;;;1.50;;
37527;SDS011;23372;52.050;4.810;2024-02-23T01:37:04;10.50;;;1.23;;
37527;SDS011;23372;52.050;4.810;2024-02-23T01:39:30;11.20;;;2.47;;
37527;SDS011;23372;52.050;4.810;2024-02-23T01:41:55;7.50;;;1.37;;
37527;SDS011;23372;52.050;4.810;2024-02-23T01:44:21;7.53;;;1.40;;
37527;SDS011;23372;52.050;4.810;2024-02-23T01:46:46;9.57;;;1.40;;
37527;SDS011;23372;52.050;4.810;2024-02-23T01:49:12;11.10;;;1.67;;
37527;SDS011;23372;52.050;4.810;2024-02-23T01:51:39;12.97;;;1.20;;
37527;SDS011;23372;52.050;4.810;2024-02-23T01:54:05;4.37;;;1.10;;
37527;SDS011;23372;52.050;4.810;2024-02-23T01:56:31;10.37;;;1.47;;
37527;SDS011;23372;52.050;4.810;2024-02-23T01:58:57;6.67;;;1.30;;
37527;SDS011;23372;52.050;4.810;2024-02-23T02:01:24;9.20;;;1.83;;
37527;SDS011;23372;52.050;4.810;2024-02-23T02:03:50;15.17;;;1.40;;
37527;SDS011;23372;52.050;4.810;2024-02-23T02:06:15;5.97;;;1.50;;
37527;SDS011;23372;52.050;4.810;2024-02-23T02:08:41;5.57;;;1.03;;
37527;SDS011;23372;52.050;4.810;2024-02-23T02:11:07;9.37;;;1.57;;
37527;SDS011;23372;52.050;4.810;2024-02-23T02:13:32;7.80;;;1.40;;
37527;SDS011;23372;52.050;4.810;2024-02-23T02:15:59;7.73;;;1.87;;
37527;SDS011;23372;52.050;4.810;2024-02-23T02:18:26;7.47;;;2.07;;
37527;SDS011;23372;52.050;4.810;2024-02-23T02:20:55;13.00;;;2.03;;
37527;SDS011;23372;52.050;4.810;2024-02-23T02:23:22;7.53;;;1.43;;
37527;SDS011;23372;52.050;4.810;2024-02-23T02:25:57;9.27;;;1.60;;
37527;SDS011;23372;52.050;4.810;2024-02-23T02:28:23;15.93;;;2.43;;
37527;SDS011;23372;52.050;4.810;2024-02-23T02:30:50;9.93;;;1.90;;
37527;SDS011;23372;52.050;4.810;2024-02-23T02:33:17;12.03;;;1.27;;
37527;SDS011;23372;52.050;4.810;2024-02-23T02:35:43;8.70;;;1.60;;
37527;SDS011;23372;52.050;4.810;2024-02-23T02:38:10;16.00;;;1.73;;
37527;SDS011;23372;52.050;4.810;2024-02-23T02:40:36;7.33;;;1.43;;
37527;SDS011;23372;52.050;4.810;2024-02-23T02:43:01;8.73;;;1.30;;
37527;SDS011;23372;52.050;4.810;2024-02-23T02:45:27;10.90;;;1.47;;
37527;SDS011;23372;52.050;4.810;2024-02-23T02:47:53;8.87;;;1.57;;
37527;SDS011;23372;52.050;4.810;2024-02-23T02:50:18;8.37;;;1.30;;
37527;SDS011;23372;52.050;4.810;2024-02-23T02:52:45;12.03;;;1.57;;
37527;SDS011;23372;52.050;4.810;2024-02-23T02:55:11;4.47;;;1.20;;
37527;SDS011;23372;52.050;4.810;2024-02-23T02:57:36;14.23;;;1.70;;
37527;SDS011;23372;52.050;4.810;2024-02-23T03:00:03;8.47;;;1.40;;
37527;SDS011;23372;52.050;4.810;2024-02-23T03:02:30;12.43;;;1.70;;
37527;SDS011;23372;52.050;4.810;2024-02-23T03:04:56;9.47;;;1.63;;
37527;SDS011;23372;52.050;4.810;2024-02-23T03:07:22;8.33;;;1.47;;
37527;SDS011;23372;52.050;4.810;2024-02-23T03:09:48;8.17;;;1.70;;
37527;SDS011;23372;52.050;4.810;2024-02-23T03:12:15;10.47;;;1.60;;
37527;SDS011;23372;52.050;4.810;2024-02-23T03:14:41;7.30;;;1.30;;
37527;SDS011;23372;52.050;4.810;2024-02-23T03:17:07;12.73;;;2.03;;
37527;SDS011;23372;52.050;4.810;2024-02-23T03:19:34;8.97;;;1.70;;
37527;SDS011;23372;52.050;4.810;2024-02-23T03:22:00;10.30;;;1.67;;
37527;SDS011;23372;52.050;4.810;2024-02-23T03:24:26;7.97;;;1.53;;
37527;SDS011;23372;52.050;4.810;2024-02-23T03:26:51;14.87;;;2.00;;
37527;SDS011;23372;52.050;4.810;2024-02-23T03:29:17;5.60;;;1.93;;
37527;SDS011;23372;52.050;4.810;2024-02-23T03:31:42;14.37;;;2.07;;
37527;SDS011;23372;52.050;4.810;2024-02-23T03:34:08;11.30;;;1.77;;
37527;SDS011;23372;52.050;4.810;2024-02-23T03:36:34;8.53;;;1.60;;
37527;SDS011;23372;52.050;4.810;2024-02-23T03:39:01;7.20;;;1.73;;
37527;SDS011;23372;52.050;4.810;2024-02-23T03:41:27;9.57;;;1.33;;
37527;SDS011;23372;52.050;4.810;2024-02-23T03:43:52;13.70;;;1.87;;
37527;SDS011;23372;52.050;4.810;2024-02-23T03:46:18;9.43;;;1.70;;
37527;SDS011;23372;52.050;4.810;2024-02-23T03:48:44;11.37;;;1.50;;
37527;SDS011;23372;52.050;4.810;2024-02-23T03:51:10;9.50;;;1.37;;
37527;SDS011;23372;52.050;4.810;2024-02-23T03:53:36;12.07;;;3.37;;
37527;SDS011;23372;52.050;4.810;2024-02-23T03:56:01;11.33;;;1.97;;
37527;SDS011;23372;52.050;4.810;2024-02-23T03:58:27;8.57;;;1.43;;
37527;SDS011;23372;52.050;4.810;2024-02-23T04:00:53;10.43;;;2.00;;
37527;SDS011;23372;52.050;4.810;2024-02-23T04:03:19;7.53;;;1.70;;
37527;SDS011;23372;52.050;4.810;2024-02-23T04:05:45;5.20;;;1.63;;
37527;SDS011;23372;52.050;4.810;2024-02-23T04:08:10;7.23;;;2.50;;
37527;SDS011;23372;52.050;4.810;2024-02-23T04:10:36;5.03;;;1.80;;
37527;SDS011;23372;52.050;4.810;2024-02-23T04:13:01;10.40;;;2.33;;
37527;SDS011;23372;52.050;4.810;2024-02-23T04:15:27;12.50;;;1.70;;
37527;SDS011;23372;52.050;4.810;2024-02-23T04:17:52;7.70;;;1.90;;
37527;SDS011;23372;52.050;4.810;2024-02-23T04:20:18;10.83;;;1.73;;
37527;SDS011;23372;52.050;4.810;2024-02-23T04:22:44;11.87;;;1.93;;
37527;SDS011;23372;52.050;4.810;2024-02-23T04:25:09;8.70;;;1.93;;
37527;SDS011;23372;52.050;4.810;2024-02-23T04:27:35;10.53;;;1.90;;
37527;SDS011;23372;52.050;4.810;2024-02-23T04:30:00;10.20;;;1.80;;
37527;SDS011;23372;52.050;4.810;2024-02-23T04:32:26;11.10;;;2.00;;
37527;SDS011;23372;52.050;4.810;2024-02-23T04:34:52;12.07;;;2.00;;
37527;SDS011;23372;52.050;4.810;2024-02-23T04:37:17;9.37;;;1.90;;
37527;SDS011;23372;52.050;4.810;2024-02-23T04:39:43;12.20;;;1.70;;
37527;SDS011;23372;52.050;4.810;2024-02-23T04:42:09;5.53;;;1.50;;
37527;SDS011;23372;52.050;4.810;2024-02-23T04:44:35;11.23;;;1.87;;
37527;SDS011;23372;52.050;4.810;2024-02-23T04:47:01;8.07;;;1.93;;
37527;SDS011;23372;52.050;4.810;2024-02-23T04:49:27;12.63;;;2.27;;
37527;SDS011;23372;52.050;4.810;2024-02-23T04:51:53;7.47;;;1.97;;
37527;SDS011;23372;52.050;4.810;2024-02-23T04:54:19;9.17;;;2.00;;
37527;SDS011;23372;52.050;4.810;2024-02-23T04:56:45;12.33;;;2.20;;
37527;SDS011;23372;52.050;4.810;2024-02-23T04:59:12;9.27;;;2.17;;
37527;SDS011;23372;52.050;4.810;2024-02-23T05:01:38;4.20;;;1.87;;
37527;SDS011;23372;52.050;4.810;2024-02-23T05:04:04;10.80;;;2.23;;
37527;SDS011;23372;52.050;4.810;2024-02-23T05:06:30;7.70;;;2.00;;
37527;SDS011;23372;52.050;4.810;2024-02-23T05:08:55;10.13;;;2.17;;
37527;SDS011;23372;52.050;4.810;2024-02-23T05:11:21;9.63;;;1.83;;
37527;SDS011;23372;52.050;4.810;2024-02-23T05:13:47;8.60;;;2.20;;
37527;SDS011;23372;52.050;4.810;2024-02-23T05:16:13;9.07;;;2.43;;
37527;SDS011;23372;52.050;4.810;2024-02-23T05:18:39;7.40;;;2.00;;
37527;SDS011;23372;52.050;4.810;2024-02-23T05:21:06;10.57;;;2.60;;
37527;SDS011;23372;52.050;4.810;2024-02-23T05:23:32;8.13;;;3.10;;
37527;SDS011;23372;52.050;4.810;2024-02-23T05:25:57;10.20;;;3.70;;
37527;SDS011;23372;52.050;4.810;2024-02-23T05:28:23;8.43;;;2.90;;
37527;SDS011;23372;52.050;4.810;2024-02-23T05:30:49;13.63;;;3.70;;
37527;SDS011;23372;52.050;4.810;2024-02-23T05:33:14;9.93;;;3.33;;
37527;SDS011;23372;52.050;4.810;2024-02-23T05:35:40;14.30;;;4.60;;
37527;SDS011;23372;52.050;4.810;2024-02-23T05:38:05;9.97;;;4.17;;
37527;SDS011;23372;52.050;4.810;2024-02-23T05:40:31;11.20;;;3.97;;
37527;SDS011;23372;52.050;4.810;2024-02-23T05:43:01;10.37;;;3.50;;
37527;SDS011;23372;52.050;4.810;2024-02-23T05:45:26;10.07;;;3.13;;
37527;SDS011;23372;52.050;4.810;2024-02-23T05:47:52;10.43;;;2.67;;
37527;SDS011;23372;52.050;4.810;2024-02-23T05:50:17;7.00;;;2.63;;
37527;SDS011;23372;52.050;4.810;2024-02-23T05:52:43;10.37;;;2.30;;
37527;SDS011;23372;52.050;4.810;2024-02-23T05:55:08;6.33;;;2.40;;
37527;SDS011;23372;52.050;4.810;2024-02-23T05:57:34;6.87;;;2.80;;
37527;SDS011;23372;52.050;4.810;2024-02-23T05:59:59;7.77;;;2.43;;
37527;SDS011;23372;52.050;4.810;2024-02-23T06:02:25;10.80;;;3.53;;
37527;SDS011;23372;52.050;4.810;2024-02-23T06:04:51;13.00;;;2.70;;
37527;SDS011;23372;52.050;4.810;2024-02-23T06:07:16;7.37;;;2.10;;
37527;SDS011;23372;52.050;4.810;2024-02-23T06:09:45;9.70;;;2.33;;
37527;SDS011;23372;52.050;4.810;2024-02-23T06:12:10;8.87;;;3.10;;
37527;SDS011;23372;52.050;4.810;2024-02-23T06:14:36;9.80;;;2.20;;
37527;SDS011;23372;52.050;4.810;2024-02-23T06:17:02;8.27;;;2.47;;
37527;SDS011;23372;52.050;4.810;2024-02-23T06:19:28;13.13;;;2.50;;
37527;SDS011;23372;52.050;4.810;2024-02-23T06:21:53;11.80;;;2.60;;
37527;SDS011;23372;52.050;4.810;2024-02-23T06:24:19;8.37;;;3.20;;
37527;SDS011;23372;52.050;4.810;2024-02-23T06:26:44;12.67;;;3.60;;
37527;SDS011;23372;52.050;4.810;2024-02-23T06:29:11;11.33;;;3.20;;
37527;SDS011;23372;52.050;4.810;2024-02-23T06:31:38;10.60;;;3.27;;
37527;SDS011;23372;52.050;4.810;2024-02-23T06:34:04;5.40;;;2.73;;
37527;SDS011;23372;52.050;4.810;2024-02-23T06:36:32;7.53;;;2.83;;
37527;SDS011;23372;52.050;4.810;2024-02-23T06:38:58;11.97;;;4.20;;
37527;SDS011;23372;52.050;4.810;2024-02-23T06:41:23;8.30;;;2.87;;
37527;SDS011;23372;52.050;4.810;2024-02-23T06:43:49;12.40;;;3.97;;
37527;SDS011;23372;52.050;4.810;2024-02-23T06:46:18;7.70;;;3.50;;
37527;SDS011;23372;52.050;4.810;2024-02-23T06:48:45;8.63;;;3.63;;
37527;SDS011;23372;52.050;4.810;2024-02-23T06:51:10;9.53;;;3.13;;
37527;SDS011;23372;52.050;4.810;2024-02-23T06:53:36;13.83;;;3.50;;
37527;SDS011;23372;52.050;4.810;2024-02-23T06:56:02;7.57;;;3.10;;
37527;SDS011;23372;52.050;4.810;2024-02-23T06:58:28;8.90;;;3.20;;
37527;SDS011;23372;52.050;4.810;2024-02-23T07:00:54;7.63;;;3.37;;
37527;SDS011;23372;52.050;4.810;2024-02-23T07:03:19;11.70;;;3.63;;
37527;SDS011;23372;52.050;4.810;2024-02-23T07:05:45;15.80;;;4.03;;
37527;SDS011;23372;52.050;4.810;2024-02-23T07:08:12;7.87;;;3.63;;
37527;SDS011;23372;52.050;4.810;2024-02-23T07:10:38;10.80;;;3.30;;
37527;SDS011;23372;52.050;4.810;2024-02-23T07:13:03;9.27;;;2.90;;
37527;SDS011;23372;52.050;4.810;2024-02-23T07:15:29;6.03;;;2.60;;
37527;SDS011;23372;52.050;4.810;2024-02-23T07:17:55;9.23;;;2.53;;
37527;SDS011;23372;52.050;4.810;2024-02-23T07:20:21;15.47;;;3.53;;
37527;SDS011;23372;52.050;4.810;2024-02-23T07:22:47;8.20;;;2.70;;
37527;SDS011;23372;52.050;4.810;2024-02-23T07:25:16;8.20;;;2.80;;
37527;SDS011;23372;52.050;4.810;2024-02-23T07:27:48;13.43;;;2.87;;
37527;SDS011;23372;52.050;4.810;2024-02-23T07:30:14;11.20;;;3.20;;
37527;SDS011;23372;52.050;4.810;2024-02-23T07:32:41;10.27;;;2.80;;
37527;SDS011;23372;52.050;4.810;2024-02-23T07:35:07;7.23;;;2.50;;
37527;SDS011;23372;52.050;4.810;2024-02-23T07:37:33;11.50;;;3.30;;
37527;SDS011;23372;52.050;4.810;2024-02-23T07:39:58;8.83;;;2.40;;
37527;SDS011;23372;52.050;4.810;2024-02-23T07:42:24;12.10;;;2.40;;
37527;SDS011;23372;52.050;4.810;2024-02-23T07:44:50;8.97;;;2.47;;
37527;SDS011;23372;52.050;4.810;2024-02-23T07:47:15;7.63;;;2.57;;
37527;SDS011;23372;52.050;4.810;2024-02-23T07:49:41;8.23;;;2.13;;
37527;SDS011;23372;52.050;4.810;2024-02-23T07:52:06;12.17;;;2.63;;
37527;SDS011;23372;52.050;4.810;2024-02-23T07:54:32;10.83;;;2.40;;
37527;SDS011;23372;52.050;4.810;2024-02-23T07:56:58;10.60;;;2.80;;
37527;SDS011;23372;52.050;4.810;2024-02-23T07:59:24;9.17;;;2.87;;
37527;SDS011;23372;52.050;4.810;2024-02-23T08:01:49;13.07;;;3.03;;
37527;SDS011;23372;52.050;4.810;2024-02-23T08:04:15;13.53;;;2.70;;
37527;SDS011;23372;52.050;4.810;2024-02-23T08:06:41;12.10;;;3.07;;
37527;SDS011;23372;52.050;4.810;2024-02-23T08:09:07;7.23;;;2.87;;
37527;SDS011;23372;52.050;4.810;2024-02-23T08:11:34;7.67;;;2.87;;
37527;SDS011;23372;52.050;4.810;2024-02-23T08:13:59;9.03;;;2.70;;
37527;SDS011;23372;52.050;4.810;2024-02-23T08:16:26;9.77;;;3.10;;
37527;SDS011;23372;52.050;4.810;2024-02-23T08:18:51;11.67;;;2.70;;
37527;SDS011;23372;52.050;4.810;2024-02-23T08:21:17;7.03;;;2.33;;
37527;SDS011;23372;52.050;4.810;2024-02-23T08:23:43;9.67;;;2.67;;
37527;SDS011;23372;52.050;4.810;2024-02-23T08:26:09;13.87;;;3.33;;
37527;SDS011;23372;52.050;4.810;2024-02-23T08:28:35;7.53;;;2.60;;
37527;SDS011;23372;52.050;4.810;2024-02-23T08:31:01;8.70;;;2.47;;
37527;SDS011;23372;52.050;4.810;2024-02-23T08:33:26;13.37;;;2.50;;
37527;SDS011;23372;52.050;4.810;2024-02-23T08:35:52;6.37;;;2.23;;
37527;SDS011;23372;52.050;4.810;2024-02-23T08:38:17;8.07;;;2.73;;
37527;SDS011;23372;52.050;4.810;2024-02-23T08:40:43;8.97;;;2.77;;
37527;SDS011;23372;52.050;4.810;2024-02-23T08:43:10;10.73;;;2.83;;
37527;SDS011;23372;52.050;4.810;2024-02-23T08:45:36;9.90;;;2.97;;
37527;SDS011;23372;52.050;4.810;2024-02-23T08:48:01;10.13;;;2.93;;
37527;SDS011;23372;52.050;4.810;2024-02-23T08:50:28;7.93;;;3.40;;
37527;SDS011;23372;52.050;4.810;2024-02-23T08:52:54;11.67;;;3.07;;
37527;SDS011;23372;52.050;4.810;2024-02-23T08:55:19;12.10;;;3.63;;
37527;SDS011;23372;52.050;4.810;2024-02-23T08:57:46;7.50;;;2.33;;
37527;SDS011;23372;52.050;4.810;2024-02-23T09:00:12;9.47;;;3.13;;
37527;SDS011;23372;52.050;4.810;2024-02-23T09:02:38;8.23;;;3.30;;
37527;SDS011;23372;52.050;4.810;2024-02-23T09:05:04;8.63;;;2.83;;
37527;SDS011;23372;52.050;4.810;2024-02-23T09:07:30;10.63;;;3.47;;
37527;SDS011;23372;52.050;4.810;2024-02-23T09:09:55;11.47;;;3.63;;
37527;SDS011;23372;52.050;4.810;2024-02-23T09:12:22;12.00;;;3.17;;
37527;SDS011;23372;52.050;4.810;2024-02-23T09:14:47;8.23;;;2.20;;
37527;SDS011;23372;52.050;4.810;2024-02-23T09:17:13;8.70;;;2.50;;
37527;SDS011;23372;52.050;4.810;2024-02-23T09:19:38;9.00;;;4.13;;
37527;SDS011;23372;52.050;4.810;2024-02-23T09:22:04;8.83;;;2.50;;
37527;SDS011;23372;52.050;4.810;2024-02-23T09:24:30;6.97;;;2.23;;
37527;SDS011;23372;52.050;4.810;2024-02-23T09:26:55;8.33;;;1.97;;
37527;SDS011;23372;52.050;4.810;2024-02-23T09:29:21;8.57;;;2.10;;
37527;SDS011;23372;52.050;4.810;2024-02-23T09:31:47;10.53;;;2.10;;
37527;SDS011;23372;52.050;4.810;2024-02-23T09:34:12;8.73;;;2.37;;
37527;SDS011;23372;52.050;4.810;2024-02-23T09:36:38;10.03;;;1.93;;
37527;SDS011;23372;52.050;4.810;2024-02-23T09:39:04;7.30;;;2.90;;
37527;SDS011;23372;52.050;4.810;2024-02-23T09:41:30;8.30;;;2.10;;
37527;SDS011;23372;52.050;4.810;2024-02-23T09:43:59;6.60;;;2.40;;
37527;SDS011;23372;52.050;4.810;2024-02-23T09:46:26;5.47;;;2.10;;
37527;SDS011;23372;52.050;4.810;2024-02-23T09:48:52;4.97;;;1.90;;
37527;SDS011;23372;52.050;4.810;2024-02-23T09:51:19;10.20;;;2.00;;
37527;SDS011;23372;52.050;4.810;2024-02-23T09:53:48;10.80;;;3.00;;
37527;SDS011;23372;52.050;4.810;2024-02-23T09:56:16;7.20;;;2.33;;
37527;SDS011;23372;52.050;4.810;2024-02-23T09:58:42;8.13;;;2.57;;
37527;SDS011;23372;52.050;4.810;2024-02-23T10:01:09;6.43;;;1.97;;
37527;SDS011;23372;52.050;4.810;2024-02-23T10:03:37;6.00;;;2.60;;
37527;SDS011;23372;52.050;4.810;2024-02-23T10:06:03;8.00;;;2.77;;
37527;SDS011;23372;52.050;4.810;2024-02-23T10:08:29;6.57;;;2.63;;
37527;SDS011;23372;52.050;4.810;2024-02-23T10:10:55;11.23;;;2.87;;
37527;SDS011;23372;52.050;4.810;2024-02-23T10:13:22;12.23;;;2.40;;
37527;SDS011;23372;52.050;4.810;2024-02-23T10:15:51;7.40;;;2.47;;
37527;SDS011;23372;52.050;4.810;2024-02-23T10:18:17;7.60;;;2.10;;
37527;SDS011;23372;52.050;4.810;2024-02-23T10:20:43;7.23;;;2.03;;
37527;SDS011;23372;52.050;4.810;2024-02-23T10:23:09;7.87;;;2.40;;
37527;SDS011;23372;52.050;4.810;2024-02-23T10:25:35;6.23;;;3.00;;
37527;SDS011;23372;52.050;4.810;2024-02-23T10:28:02;6.10;;;2.43;;
37527;SDS011;23372;52.050;4.810;2024-02-23T10:30:28;5.67;;;1.90;;
37527;SDS011;23372;52.050;4.810;2024-02-23T10:32:55;6.33;;;2.63;;
37527;SDS011;23372;52.050;4.810;2024-02-23T10:35:21;5.87;;;1.87;;
37527;SDS011;23372;52.050;4.810;2024-02-23T10:37:48;4.80;;;1.77;;
37527;SDS011;23372;52.050;4.810;2024-02-23T10:40:17;6.70;;;2.00;;
37527;SDS011;23372;52.050;4.810;2024-02-23T10:42:43;5.27;;;1.70;;
37527;SDS011;23372;52.050;4.810;2024-02-23T10:45:15;5.27;;;2.10;;
37527;SDS011;23372;52.050;4.810;2024-02-23T10:47:41;7.37;;;2.20;;
37527;SDS011;23372;52.050;4.810;2024-02-23T10:50:08;5.70;;;2.17;;
37527;SDS011;23372;52.050;4.810;2024-02-23T10:52:34;5.50;;;1.70;;
37527;SDS011;23372;52.050;4.810;2024-02-23T10:55:01;4.67;;;1.70;;
37527;SDS011;23372;52.050;4.810;2024-02-23T10:57:30;5.33;;;1.80;;
37527;SDS011;23372;52.050;4.810;2024-02-23T10:59:59;3.10;;;1.70;;
37527;SDS011;23372;52.050;4.810;2024-02-23T11:02:26;7.37;;;1.93;;
37527;SDS011;23372;52.050;4.810;2024-02-23T11:04:55;5.70;;;2.27;;
37527;SDS011;23372;52.050;4.810;2024-02-23T11:07:22;5.57;;;1.90;;
37527;SDS011;23372;52.050;4.810;2024-02-23T11:09:53;6.77;;;1.70;;
37527;SDS011;23372;52.050;4.810;2024-02-23T11:12:28;7.83;;;1.50;;
37527;SDS011;23372;52.050;4.810;2024-02-23T11:14:57;6.73;;;1.83;;
37527;SDS011;23372;52.050;4.810;2024-02-23T11:17:35;6.60;;;1.40;;
37527;SDS011;23372;52.050;4.810;2024-02-23T11:20:05;4.93;;;1.47;;
37527;SDS011;23372;52.050;4.810;2024-02-23T11:22:32;4.37;;;1.63;;
37527;SDS011;23372;52.050;4.810;2024-02-23T11:25:00;4.80;;;1.63;;
37527;SDS011;23372;52.050;4.810;2024-02-23T11:27:36;5.20;;;1.87;;
37527;SDS011;23372;52.050;4.810;2024-02-23T11:30:03;6.80;;;1.70;;
37527;SDS011;23372;52.050;4.810;2024-02-23T11:35:07;6.13;;;1.50;;
37527;SDS011;23372;52.050;4.810;2024-02-23T11:37:48;7.27;;;1.57;;
37527;SDS011;23372;52.050;4.810;2024-02-23T11:40:21;11.47;;;1.47;;
37527;SDS011;23372;52.050;4.810;2024-02-23T11:42:47;5.77;;;1.40;;
37527;SDS011;23372;52.050;4.810;2024-02-23T11:45:13;6.23;;;1.10;;
37527;SDS011;23372;52.050;4.810;2024-02-23T11:47:39;5.83;;;1.20;;
37527;SDS011;23372;52.050;4.810;2024-02-23T11:50:10;6.33;;;1.43;;
37527;SDS011;23372;52.050;4.810;2024-02-23T11:52:39;7.63;;;1.90;;
37527;SDS011;23372;52.050;4.810;2024-02-23T11:55:05;4.67;;;1.00;;
37527;SDS011;23372;52.050;4.810;2024-02-23T11:57:34;4.63;;;0.80;;
37527;SDS011;23372;52.050;4.810;2024-02-23T12:00:01;5.80;;;1.23;;
37527;SDS011;23372;52.050;4.810;2024-02-23T12:02:28;3.23;;;1.00;;
37527;SDS011;23372;52.050;4.810;2024-02-23T12:04:53;7.60;;;1.30;;
37527;SDS011;23372;52.050;4.810;2024-02-23T12:07:19;6.67;;;2.07;;
37527;SDS011;23372;52.050;4.810;2024-02-23T12:09:46;6.37;;;1.53;;
37527;SDS011;23372;52.050;4.810;2024-02-23T12:12:12;4.63;;;1.30;;
37527;SDS011;23372;52.050;4.810;2024-02-23T12:14:39;6.43;;;1.97;;
37527;SDS011;23372;52.050;4.810;2024-02-23T12:17:05;6.17;;;1.23;;
37527;SDS011;23372;52.050;4.810;2024-02-23T12:19:37;3.90;;;1.00;;
37527;SDS011;23372;52.050;4.810;2024-02-23T12:22:04;6.20;;;1.27;;
37527;SDS011;23372;52.050;4.810;2024-02-23T12:24:29;4.87;;;1.20;;
37527;SDS011;23372;52.050;4.810;2024-02-23T12:26:55;8.50;;;2.37;;
37527;SDS011;23372;52.050;4.810;2024-02-23T12:29:21;5.50;;;1.30;;
37527;SDS011;23372;52.050;4.810;2024-02-23T12:31:47;8.03;;;1.40;;
37527;SDS011;23372;52.050;4.810;2024-02-23T12:34:13;5.60;;;1.50;;
37527;SDS011;23372;52.050;4.810;2024-02-23T12:36:39;9.87;;;1.60;;
37527;SDS011;23372;52.050;4.810;2024-02-23T12:39:04;7.43;;;1.37;;
37527;SDS011;23372;52.050;4.810;2024-02-23T12:41:30;4.77;;;1.10;;
37527;SDS011;23372;52.050;4.810;2024-02-23T12:43:57;4.77;;;1.43;;
37527;SDS011;23372;52.050;4.810;2024-02-23T12:46:22;4.63;;;1.60;;
37527;SDS011;23372;52.050;4.810;2024-02-23T12:48:49;3.30;;;1.30;;
37527;SDS011;23372;52.050;4.810;2024-02-23T12:51:14;7.17;;;1.20;;
37527;SDS011;23372;52.050;4.810;2024-02-23T12:53:41;4.10;;;1.20;;
37527;SDS011;23372;52.050;4.810;2024-02-23T12:56:08;4.60;;;0.90;;
37527;SDS011;23372;52.050;4.810;2024-02-23T12:58:36;7.00;;;2.47;;
37527;SDS011;23372;52.050;4.810;2024-02-23T13:01:02;8.13;;;1.30;;
37527;SDS011;23372;52.050;4.810;2024-02-23T13:03:29;5.97;;;1.30;;
37527;SDS011;23372;52.050;4.810;2024-02-23T13:05:55;7.13;;;1.13;;
37527;SDS011;23372;52.050;4.810;2024-02-23T13:08:21;4.53;;;1.93;;
37527;SDS011;23372;52.050;4.810;2024-02-23T13:10:48;9.53;;;2.00;;
37527;SDS011;23372;52.050;4.810;2024-02-23T13:13:14;8.97;;;1.80;;
37527;SDS011;23372;52.050;4.810;2024-02-23T13:15:40;4.43;;;1.10;;
37527;SDS011;23372;52.050;4.810;2024-02-23T13:18:09;6.67;;;1.30;;
37527;SDS011;23372;52.050;4.810;2024-02-23T13:20:35;4.83;;;1.50;;
37527;SDS011;23372;52.050;4.810;2024-02-23T13:23:06;3.80;;;1.10;;
37527;SDS011;23372;52.050;4.810;2024-02-23T13:25:33;4.33;;;1.20;;
37527;SDS011;23372;52.050;4.810;2024-02-23T13:27:59;6.57;;;1.40;;
37527;SDS011;23372;52.050;4.810;2024-02-23T13:30:25;5.40;;;0.90;;
37527;SDS011;23372;52.050;4.810;2024-02-23T13:32:50;2.47;;;0.90;;
37527;SDS011;23372;52.050;4.810;2024-02-23T13:35:17;1.57;;;0.87;;
37527;SDS011;23372;52.050;4.810;2024-02-23T13:37:42;2.23;;;0.93;;
37527;SDS011;23372;52.050;4.810;2024-02-23T13:40:08;2.77;;;0.80;;
37527;SDS011;23372;52.050;4.810;2024-02-23T13:42:35;2.20;;;0.67;;
37527;SDS011;23372;52.050;4.810;2024-02-23T13:45:03;4.80;;;0.80;;
37527;SDS011;23372;52.050;4.810;2024-02-23T13:47:34;1.97;;;0.50;;
37527;SDS011;23372;52.050;4.810;2024-02-23T13:50:00;2.30;;;0.60;;
37527;SDS011;23372;52.050;4.810;2024-02-23T13:52:26;1.23;;;0.50;;
37527;SDS011;23372;52.050;4.810;2024-02-23T13:54:52;3.03;;;0.60;;
37527;SDS011;23372;52.050;4.810;2024-02-23T13:57:18;6.27;;;0.90;;
37527;SDS011;23372;52.050;4.810;2024-02-23T13:59:43;2.60;;;0.53;;
37527;SDS011;23372;52.050;4.810;2024-02-23T14:02:09;4.63;;;0.60;;
37527;SDS011;23372;52.050;4.810;2024-02-23T14:04:35;3.50;;;0.70;;
37527;SDS011;23372;52.050;4.810;2024-02-23T14:07:00;1.60;;;1.20;;
37527;SDS011;23372;52.050;4.810;2024-02-23T14:09:26;1.33;;;0.40;;
37527;SDS011;23372;52.050;4.810;2024-02-23T14:11:52;2.93;;;0.67;;
37527;SDS011;23372;52.050;4.810;2024-02-23T14:14:17;2.10;;;0.70;;
37527;SDS011;23372;52.050;4.810;2024-02-23T14:16:44;2.47;;;0.60;;
37527;SDS011;23372;52.050;4.810;2024-02-23T14:19:10;4.57;;;1.47;;
37527;SDS011;23372;52.050;4.810;2024-02-23T14:21:36;3.47;;;0.53;;
37527;SDS011;23372;52.050;4.810;2024-02-23T14:24:02;2.33;;;0.70;;
37527;SDS011;23372;52.050;4.810;2024-02-23T14:26:28;3.83;;;0.60;;
37527;SDS011;23372;52.050;4.810;2024-02-23T14:28:54;1.70;;;0.50;;
37527;SDS011;23372;52.050;4.810;2024-02-23T14:31:19;1.40;;;0.60;;
37527;SDS011;23372;52.050;4.810;2024-02-23T14:33:45;3.20;;;0.60;;
37527;SDS011;23372;52.050;4.810;2024-02-23T14:36:10;1.30;;;0.57;;
37527;SDS011;23372;52.050;4.810;2024-02-23T14:38:36;2.30;;;0.70;;
37527;SDS011;23372;52.050;4.810;2024-02-23T14:41:01;1.33;;;0.50;;